createdAt,value
2023-04-18T00:01:38.334Z,9.07
2023-04-18T00:04:05.609Z,9.23
2023-04-18T00:06:32.673Z,10.18
2023-04-18T00:08:59.146Z,9.48
2023-04-18T00:11:25.632Z,10.05
2023-04-18T00:13:52.099Z,9.38
2023-04-18T00:16:19.069Z,8.77
2023-04-18T00:18:45.583Z,9.00
2023-04-18T00:21:13.381Z,9.52
2023-04-18T00:23:39.901Z,10.05
2023-04-18T00:26:06.356Z,10.35
2023-04-18T00:28:32.874Z,10.35
2023-04-18T00:30:59.657Z,10.05
2023-04-18T00:33:26.260Z,9.68
2023-04-18T00:35:53.738Z,10.02
2023-04-18T00:38:20.121Z,10.85
2023-04-18T00:40:46.608Z,10.00
2023-04-18T00:43:13.993Z,9.88
2023-04-18T00:45:40.722Z,10.43
2023-04-18T00:48:07.543Z,10.10
2023-04-18T00:50:34.074Z,10.07
2023-04-18T00:53:00.802Z,10.35
2023-04-18T00:55:27.305Z,10.95
2023-04-18T00:57:53.740Z,9.98
2023-04-18T01:00:20.188Z,10.77
2023-04-18T01:02:47.844Z,11.40
2023-04-18T01:05:14.696Z,9.35
2023-04-18T01:07:41.555Z,10.57
2023-04-18T01:10:10.300Z,10.98
2023-04-18T01:12:37.707Z,11.10
2023-04-18T01:15:08.076Z,10.82
2023-04-18T01:17:35.546Z,10.52
2023-04-18T01:20:04.895Z,9.38
2023-04-18T01:22:32.347Z,10.38
2023-04-18T01:24:58.997Z,10.30
2023-04-18T01:27:25.538Z,10.38
2023-04-18T01:29:52.080Z,10.35
2023-04-18T01:32:20.453Z,10.70
2023-04-18T01:34:47.239Z,10.05
2023-04-18T01:37:13.746Z,9.40
2023-04-18T01:39:40.190Z,10.05
2023-04-18T01:42:06.736Z,10.10
2023-04-18T01:44:33.122Z,11.05
2023-04-18T01:46:59.629Z,9.93
2023-04-18T01:49:26.227Z,10.98
2023-04-18T01:51:52.725Z,10.45
2023-04-18T01:54:19.253Z,10.32
2023-04-18T01:56:45.774Z,11.15
2023-04-18T01:59:12.160Z,11.48
2023-04-18T02:01:38.586Z,9.93
2023-04-18T02:04:05.272Z,11.60
2023-04-18T02:06:31.832Z,9.68
2023-04-18T02:08:58.389Z,9.77
2023-04-18T02:11:25.041Z,10.68
2023-04-18T02:13:52.306Z,9.90
2023-04-18T02:16:18.865Z,11.85
2023-04-18T02:18:45.336Z,10.93
2023-04-18T02:21:11.855Z,10.77
2023-04-18T02:23:38.359Z,11.43
2023-04-18T02:26:04.836Z,10.50
2023-04-18T02:28:31.312Z,11.45
2023-04-18T02:30:59.798Z,10.68
2023-04-18T02:33:26.288Z,11.75
2023-04-18T02:35:52.668Z,12.00
2023-04-18T02:38:19.145Z,10.70
2023-04-18T02:40:45.660Z,10.80
2023-04-18T02:43:12.108Z,10.30
2023-04-18T02:45:38.588Z,10.88
2023-04-18T02:48:05.345Z,10.85
2023-04-18T02:50:32.124Z,10.63
2023-04-18T02:52:58.620Z,10.23
2023-04-18T02:55:26.868Z,10.73
2023-04-18T02:57:53.343Z,10.77
2023-04-18T03:00:19.867Z,11.43
2023-04-18T03:02:46.446Z,10.38
2023-04-18T03:05:13.231Z,11.48
2023-04-18T03:07:39.689Z,11.02
2023-04-18T03:10:06.594Z,11.57
2023-04-18T03:12:33.053Z,10.88
2023-04-18T03:14:59.435Z,11.15
2023-04-18T03:17:25.952Z,11.88
2023-04-18T03:19:52.576Z,11.55
2023-04-18T03:22:19.475Z,10.73
2023-04-18T03:24:45.970Z,11.35
2023-04-18T03:27:12.864Z,11.63
2023-04-18T03:29:39.293Z,11.00
2023-04-18T03:32:05.739Z,11.68
2023-04-18T03:34:32.143Z,11.23
2023-04-18T03:36:58.643Z,11.88
2023-04-18T03:39:25.168Z,12.65
2023-04-18T03:41:52.566Z,12.40
2023-04-18T03:44:19.054Z,12.65
2023-04-18T03:46:45.768Z,13.10
2023-04-18T03:49:12.246Z,13.50
2023-04-18T03:51:49.807Z,12.13
2023-04-18T03:54:17.052Z,13.10
2023-04-18T03:56:44.199Z,11.50
2023-04-18T03:59:11.433Z,11.98
2023-04-18T04:01:38.052Z,13.57
2023-04-18T04:04:05.992Z,11.73
2023-04-18T04:06:32.874Z,12.88
2023-04-18T04:08:59.313Z,12.32
2023-04-18T04:11:26.023Z,12.43
2023-04-18T04:13:52.870Z,12.30
2023-04-18T04:16:19.454Z,13.82
2023-04-18T04:18:45.935Z,12.45
2023-04-18T04:21:12.477Z,13.02
2023-04-18T04:23:38.993Z,11.80
2023-04-18T04:26:05.490Z,12.65
2023-04-18T04:28:31.909Z,14.52
2023-04-18T04:30:59.222Z,12.13
2023-04-18T04:33:28.554Z,12.80
2023-04-18T04:35:55.605Z,11.98
2023-04-18T04:38:24.975Z,13.07
2023-04-18T04:40:52.788Z,11.75
2023-04-18T04:43:20.474Z,12.13
2023-04-18T04:45:51.488Z,12.90
2023-04-18T04:48:19.801Z,12.13
2023-04-18T04:50:58.274Z,12.48
2023-04-18T04:53:26.557Z,12.75
2023-04-18T04:55:52.984Z,12.35
2023-04-18T04:58:19.954Z,13.10
2023-04-18T05:00:46.466Z,13.82
2023-04-18T05:03:13.034Z,13.00
2023-04-18T05:05:39.677Z,12.43
2023-04-18T05:08:06.209Z,12.15
2023-04-18T05:10:33.063Z,11.60
2023-04-18T05:12:59.493Z,11.65
2023-04-18T05:15:26.104Z,13.77
2023-04-18T05:17:52.539Z,13.20
2023-04-18T05:20:19.024Z,14.00
2023-04-18T05:22:45.529Z,13.85
2023-04-18T05:25:12.466Z,12.50
2023-04-18T05:27:39.642Z,14.27
2023-04-18T05:30:06.917Z,13.80
2023-04-18T05:32:33.465Z,13.30
2023-04-18T05:35:00.149Z,13.35
2023-04-18T05:37:26.558Z,13.10
2023-04-18T05:39:52.958Z,12.75
2023-04-18T05:42:19.434Z,12.52
2023-04-18T05:44:45.794Z,13.40
2023-04-18T05:47:12.307Z,13.25
2023-04-18T05:49:38.823Z,12.93
2023-04-18T05:52:05.668Z,13.07
2023-04-18T05:54:32.141Z,12.05
2023-04-18T05:57:00.900Z,13.00
2023-04-18T05:59:28.672Z,13.85
2023-04-18T06:01:55.217Z,12.98
2023-04-18T06:04:22.054Z,12.63
2023-04-18T06:06:48.730Z,14.05
2023-04-18T06:09:15.170Z,13.57
2023-04-18T06:11:41.682Z,14.00
2023-04-18T06:14:08.120Z,12.43
2023-04-18T06:16:37.125Z,13.82
2023-04-18T06:19:05.247Z,14.02
2023-04-18T06:21:32.014Z,11.30
2023-04-18T06:23:58.522Z,11.55
2023-04-18T06:26:25.064Z,12.75
2023-04-18T06:28:51.498Z,11.82
2023-04-18T06:31:18.148Z,12.63
2023-04-18T06:33:44.577Z,12.65
2023-04-18T06:36:11.132Z,12.88
2023-04-18T06:38:37.569Z,12.73
2023-04-18T06:41:04.202Z,12.57
2023-04-18T06:43:31.050Z,11.80
2023-04-18T06:45:57.659Z,12.43
2023-04-18T06:48:24.247Z,13.57
2023-04-18T06:50:50.803Z,13.43
2023-04-18T06:53:17.348Z,12.75
2023-04-18T06:55:43.918Z,12.88
2023-04-18T06:58:10.328Z,13.10
2023-04-18T07:00:36.754Z,11.98
2023-04-18T07:03:11.317Z,12.57
2023-04-18T07:05:41.700Z,12.32
2023-04-18T07:08:08.443Z,14.05
2023-04-18T07:10:34.893Z,13.02
2023-04-18T07:13:01.346Z,13.13
2023-04-18T07:15:27.886Z,13.57
2023-04-18T07:17:54.509Z,12.07
2023-04-18T07:20:21.169Z,12.57
2023-04-18T07:22:48.755Z,12.50
2023-04-18T07:25:16.312Z,12.70
2023-04-18T07:27:42.720Z,12.85
2023-04-18T07:30:09.675Z,12.23
2023-04-18T07:32:36.296Z,11.77
2023-04-18T07:35:03.377Z,12.35
2023-04-18T07:37:29.879Z,12.52
2023-04-18T07:39:56.424Z,12.52
2023-04-18T07:42:22.924Z,11.88
2023-04-18T07:44:49.714Z,12.65
2023-04-18T07:47:16.428Z,12.55
2023-04-18T07:49:42.816Z,12.85
2023-04-18T07:52:09.292Z,13.80
2023-04-18T07:54:35.800Z,13.10
2023-04-18T07:57:02.325Z,12.73
2023-04-18T07:59:29.748Z,12.63
2023-04-18T08:01:56.319Z,12.45
2023-04-18T08:04:23.177Z,12.23
2023-04-18T08:06:49.734Z,12.57
2023-04-18T08:09:16.326Z,12.20
2023-04-18T08:11:43.153Z,11.93
2023-04-18T08:14:09.617Z,11.98
2023-04-18T08:16:36.986Z,11.85
2023-04-18T08:19:04.940Z,11.55
2023-04-18T08:21:32.151Z,12.48
2023-04-18T08:23:59.079Z,12.25
2023-04-18T08:26:25.851Z,11.85
2023-04-18T08:28:52.480Z,11.32
2023-04-18T08:31:19.077Z,11.13
2023-04-18T08:33:45.631Z,10.95
2023-04-18T08:36:12.159Z,11.38
2023-04-18T08:38:38.887Z,12.35
2023-04-18T08:41:05.562Z,10.63
2023-04-18T08:43:32.306Z,10.55
2023-04-18T08:46:00.199Z,11.10
2023-04-18T08:48:30.535Z,10.18
2023-04-18T08:51:01.544Z,11.68
2023-04-18T08:53:28.101Z,11.38
2023-04-18T08:55:56.315Z,11.02
2023-04-18T08:58:23.278Z,11.85
2023-04-18T09:00:51.555Z,12.45
2023-04-18T09:03:35.152Z,11.27
2023-04-18T09:06:18.824Z,11.77
2023-04-18T09:08:58.755Z,10.48
2023-04-18T09:11:28.581Z,10.48
2023-04-18T09:13:59.388Z,10.35
2023-04-18T09:16:27.525Z,10.82
2023-04-18T09:19:12.861Z,11.40
2023-04-18T09:21:41.950Z,10.55
2023-04-18T09:24:22.678Z,11.05
2023-04-18T09:26:51.259Z,11.48
2023-04-18T09:29:18.623Z,12.23
2023-04-18T09:31:57.432Z,10.05
2023-04-18T09:34:27.604Z,11.05
2023-04-18T09:37:11.330Z,11.20
2023-04-18T09:39:42.743Z,11.27
2023-04-18T09:42:10.889Z,10.90
2023-04-18T09:44:38.574Z,10.63
2023-04-18T09:47:07.788Z,11.15
2023-04-18T09:49:34.607Z,10.90
2023-04-18T09:52:06.439Z,10.90
2023-04-18T09:54:37.479Z,10.40
2023-04-18T09:57:09.107Z,10.38
2023-04-18T09:59:47.667Z,11.10
2023-04-18T10:02:22.567Z,10.50
2023-04-18T10:04:53.732Z,10.20
2023-04-18T10:09:48.983Z,10.40
2023-04-18T10:12:17.363Z,10.35
2023-04-18T10:14:44.364Z,9.45
2023-04-18T10:17:11.721Z,9.82
2023-04-18T10:19:41.961Z,9.95
2023-04-18T10:22:08.454Z,10.15
2023-04-18T10:24:53.311Z,9.93
2023-04-18T10:27:48.984Z,9.63
2023-04-18T10:30:16.767Z,10.45
2023-04-18T10:32:43.560Z,9.88
2023-04-18T10:35:11.188Z,9.63
2023-04-18T10:37:51.128Z,9.63
2023-04-18T10:40:32.435Z,8.85
2023-04-18T10:42:59.167Z,10.50
2023-04-18T10:45:28.848Z,9.32
2023-04-18T10:48:30.134Z,10.40
2023-04-18T10:51:19.319Z,10.05
2023-04-18T10:53:52.432Z,9.23
2023-04-18T10:56:19.316Z,9.05
2023-04-18T10:58:59.237Z,9.20
2023-04-18T11:01:31.651Z,8.93
2023-04-18T11:03:59.573Z,8.48
2023-04-18T11:06:30.270Z,9.20
2023-04-18T11:09:13.728Z,9.18
2023-04-18T11:11:41.940Z,9.07
2023-04-18T11:14:08.502Z,8.60
2023-04-18T11:16:35.181Z,9.55
2023-04-18T11:19:18.977Z,9.20
2023-04-18T11:21:45.509Z,8.68
2023-04-18T11:24:12.287Z,8.57
2023-04-18T11:26:39.216Z,8.55
2023-04-18T11:29:06.358Z,8.55
2023-04-18T11:31:32.793Z,8.20
2023-04-18T11:33:59.237Z,8.95
2023-04-18T11:36:26.500Z,8.15
2023-04-18T11:38:53.053Z,8.18
2023-04-18T11:41:19.555Z,9.20
2023-04-18T11:43:46.622Z,7.78
2023-04-18T11:46:13.593Z,8.95
2023-04-18T11:48:42.226Z,8.93
2023-04-18T11:51:31.922Z,8.15
2023-04-18T11:53:58.363Z,8.45
2023-04-18T11:56:25.041Z,8.77
2023-04-18T11:58:51.596Z,7.70
2023-04-18T12:01:25.724Z,6.88
2023-04-18T12:04:07.497Z,7.13
2023-04-18T12:06:50.282Z,7.57
2023-04-18T12:09:17.434Z,7.25
2023-04-18T12:11:44.327Z,7.80
2023-04-18T12:14:21.567Z,6.25
2023-04-18T12:16:52.015Z,6.35
2023-04-18T12:19:20.779Z,7.63
2023-04-18T12:22:02.046Z,7.75
2023-04-18T12:24:28.915Z,6.93
2023-04-18T12:26:57.838Z,7.47
2023-04-18T12:29:25.559Z,7.50
2023-04-18T12:31:52.149Z,7.13
2023-04-18T12:34:18.860Z,7.15
2023-04-18T12:36:45.908Z,7.90
2023-04-18T12:39:12.650Z,7.25
2023-04-18T12:41:39.099Z,7.20
2023-04-18T12:44:06.713Z,6.25
2023-04-18T12:46:33.355Z,7.55
2023-04-18T12:49:00.273Z,7.40
2023-04-18T12:51:27.952Z,7.93
2023-04-18T12:53:54.430Z,7.95
2023-04-18T12:56:21.419Z,6.68
2023-04-18T12:58:47.938Z,7.10
2023-04-18T13:01:14.531Z,7.50
2023-04-18T13:03:41.521Z,7.10
2023-04-18T13:06:09.363Z,7.00
2023-04-18T13:08:37.504Z,7.07
2023-04-18T13:11:04.147Z,6.00
2023-04-18T13:13:30.667Z,7.15
2023-04-18T13:15:57.217Z,5.53
2023-04-18T13:18:23.714Z,5.40
2023-04-18T13:20:50.296Z,6.32
2023-04-18T13:23:16.770Z,6.57
2023-04-18T13:25:43.305Z,6.10
2023-04-18T13:28:09.684Z,5.75
2023-04-18T13:30:36.102Z,5.57
2023-04-18T13:33:02.569Z,6.28
2023-04-18T13:35:29.180Z,5.93
2023-04-18T13:37:55.931Z,5.95
2023-04-18T13:40:22.523Z,5.13
2023-04-18T13:42:49.124Z,6.28
2023-04-18T13:45:15.838Z,5.60
2023-04-18T13:47:42.395Z,6.32
2023-04-18T13:50:09.447Z,5.53
2023-04-18T13:52:36.286Z,5.47
2023-04-18T13:55:02.828Z,5.32
2023-04-18T13:57:31.946Z,6.00
2023-04-18T13:59:58.422Z,5.35
2023-04-18T14:02:24.946Z,5.60
2023-04-18T14:04:52.360Z,5.97
2023-04-18T14:07:18.986Z,5.20
2023-04-18T14:09:48.164Z,5.40
2023-04-18T14:12:14.671Z,5.50
2023-04-18T14:14:41.762Z,5.32
2023-04-18T14:17:08.254Z,5.03
2023-04-18T14:19:35.005Z,5.35
2023-04-18T14:22:01.422Z,5.55
2023-04-18T14:24:27.926Z,5.70
2023-04-18T14:26:54.741Z,5.40
2023-04-18T14:29:21.159Z,5.70
2023-04-18T14:31:50.594Z,5.57
2023-04-18T14:34:17.110Z,5.47
2023-04-18T14:36:43.568Z,5.70
2023-04-18T14:39:10.260Z,5.72
2023-04-18T14:41:36.789Z,4.85
2023-04-18T14:44:04.158Z,5.82
2023-04-18T14:46:30.700Z,5.32
2023-04-18T14:48:58.251Z,5.45
2023-04-18T14:51:24.789Z,5.35
2023-04-18T14:53:51.399Z,4.38
2023-04-18T14:56:20.895Z,4.22
2023-04-18T14:58:47.550Z,4.63
2023-04-18T15:01:14.035Z,4.25
2023-04-18T15:03:40.900Z,5.20
2023-04-18T15:06:07.750Z,5.15
2023-04-18T15:08:34.348Z,5.38
2023-04-18T15:11:01.362Z,4.78
2023-04-18T15:13:27.910Z,4.68
2023-04-18T15:15:56.436Z,4.72
2023-04-18T15:18:23.067Z,4.63
2023-04-18T15:20:49.990Z,4.28
2023-04-18T15:23:16.581Z,4.70
2023-04-18T15:25:44.712Z,4.65
2023-04-18T15:28:13.125Z,5.00
2023-04-18T15:30:39.709Z,4.50
2023-04-18T15:33:07.526Z,4.82
2023-04-18T15:35:33.999Z,5.22
2023-04-18T15:38:00.539Z,5.15
2023-04-18T15:40:27.064Z,5.40
2023-04-18T15:42:54.328Z,5.63
2023-04-18T15:45:21.192Z,5.60
2023-04-18T15:47:47.837Z,5.78
2023-04-18T15:50:15.939Z,6.40
2023-04-18T15:52:42.453Z,6.47
2023-04-18T15:55:11.041Z,6.55
2023-04-18T15:57:37.792Z,6.03
2023-04-18T16:00:10.175Z,6.45
2023-04-18T16:02:37.021Z,6.18
2023-04-18T16:05:04.521Z,7.05
2023-04-18T16:07:31.191Z,6.45
2023-04-18T16:09:57.850Z,6.32
2023-04-18T16:12:24.621Z,6.38
2023-04-18T16:14:51.327Z,6.53
2023-04-18T16:17:17.881Z,5.93
2023-04-18T16:19:44.405Z,5.40
2023-04-18T16:22:12.112Z,6.05
2023-04-18T16:24:39.919Z,5.57
2023-04-18T16:27:08.014Z,5.53
2023-04-18T16:29:35.196Z,5.68
2023-04-18T16:32:02.767Z,5.63
2023-04-18T16:34:29.200Z,6.20
2023-04-18T16:36:55.813Z,6.18
2023-04-18T16:39:22.597Z,5.40
2023-04-18T16:41:49.267Z,6.20
2023-04-18T16:44:16.118Z,5.32
2023-04-18T16:46:42.832Z,5.35
2023-04-18T16:49:09.276Z,5.57
2023-04-18T16:51:37.097Z,5.20
2023-04-18T16:54:04.325Z,5.07
2023-04-18T16:56:30.759Z,5.30
2023-04-18T16:58:58.068Z,5.05
2023-04-18T17:01:24.532Z,4.93
2023-04-18T17:03:51.323Z,4.60
2023-04-18T17:06:19.286Z,4.95
2023-04-18T17:08:49.527Z,4.70
2023-04-18T17:11:19.825Z,4.88
2023-04-18T17:13:47.865Z,5.03
2023-04-18T17:16:14.589Z,5.40
2023-04-18T17:18:41.772Z,4.10
2023-04-18T17:21:12.335Z,4.38
2023-04-18T17:23:41.442Z,4.43
2023-04-18T17:26:09.061Z,4.03
2023-04-18T17:28:36.364Z,4.07
2023-04-18T17:31:03.891Z,3.58
2023-04-18T17:33:31.163Z,4.22
2023-04-18T17:35:58.175Z,4.10
2023-04-18T17:38:24.765Z,4.32
2023-04-18T17:41:01.144Z,4.10
2023-04-18T17:43:28.194Z,4.40
2023-04-18T17:45:55.953Z,4.30
2023-04-18T17:48:22.612Z,4.63
2023-04-18T17:50:49.146Z,4.47
2023-04-18T17:53:15.810Z,4.60
2023-04-18T17:55:42.369Z,5.10
2023-04-18T17:58:09.220Z,4.95
2023-04-18T18:00:35.924Z,5.25
2023-04-18T18:03:03.560Z,4.78
2023-04-18T18:05:30.707Z,4.32
2023-04-18T18:07:57.621Z,5.75
2023-04-18T18:10:24.924Z,5.50
2023-04-18T18:12:51.502Z,5.07
2023-04-18T18:15:18.362Z,5.70
2023-04-18T18:17:45.016Z,5.22
2023-04-18T18:20:11.829Z,5.32
2023-04-18T18:22:38.280Z,5.65
2023-04-18T18:25:05.449Z,5.15
2023-04-18T18:27:31.920Z,5.78
2023-04-18T18:29:58.530Z,5.85
2023-04-18T18:32:26.736Z,6.13
2023-04-18T18:34:53.341Z,6.13
2023-04-18T18:37:19.895Z,5.78
2023-04-18T18:39:46.346Z,6.38
2023-04-18T18:42:12.878Z,5.88
2023-04-18T18:44:39.305Z,6.05
2023-04-18T18:47:06.097Z,6.45
2023-04-18T18:49:32.798Z,6.55
2023-04-18T18:51:59.340Z,6.20
2023-04-18T18:54:25.984Z,5.68
2023-04-18T18:56:52.624Z,6.28
2023-04-18T18:59:19.166Z,6.30
2023-04-18T19:01:45.751Z,6.30
2023-04-18T19:04:12.574Z,6.00
2023-04-18T19:06:39.318Z,6.60
2023-04-18T19:09:06.078Z,6.38
2023-04-18T19:11:32.610Z,6.55
2023-04-18T19:13:59.119Z,7.07
2023-04-18T19:16:25.998Z,6.50
2023-04-18T19:18:52.455Z,7.80
2023-04-18T19:21:20.141Z,6.70
2023-04-18T19:23:47.061Z,6.68
2023-04-18T19:26:13.783Z,6.80
2023-04-18T19:28:40.291Z,6.75
2023-04-18T19:31:06.908Z,6.53
2023-04-18T19:33:33.432Z,6.45
2023-04-18T19:36:05.805Z,6.85
2023-04-18T19:38:36.742Z,7.28
2023-04-18T19:41:03.339Z,6.93
2023-04-18T19:43:29.925Z,7.82
2023-04-18T19:45:56.543Z,7.07
2023-04-18T19:48:23.127Z,7.13
2023-04-18T19:50:50.082Z,8.30
2023-04-18T19:53:18.832Z,7.75
2023-04-18T19:55:45.455Z,7.55
2023-04-18T19:58:11.942Z,8.32
2023-04-18T20:00:39.420Z,8.02
2023-04-18T20:03:06.080Z,8.18
2023-04-18T20:05:32.757Z,8.80
2023-04-18T20:07:59.209Z,8.43
2023-04-18T20:10:25.779Z,8.85
2023-04-18T20:12:52.187Z,8.85
2023-04-18T20:15:18.882Z,8.00
2023-04-18T20:17:45.503Z,8.57
2023-04-18T20:20:12.444Z,8.77
2023-04-18T20:22:40.244Z,9.07
2023-04-18T20:25:07.075Z,8.18
2023-04-18T20:27:33.624Z,9.10
2023-04-18T20:30:00.183Z,8.73
2023-04-18T20:32:26.895Z,9.05
2023-04-18T20:34:53.503Z,10.13
2023-04-18T20:37:20.449Z,9.35
2023-04-18T20:39:47.782Z,9.18
2023-04-18T20:42:14.331Z,8.70
2023-04-18T20:44:43.225Z,9.20
2023-04-18T20:47:09.753Z,9.68
2023-04-18T20:49:36.289Z,9.35
2023-04-18T20:52:02.894Z,8.70
2023-04-18T20:54:29.465Z,9.52
2023-04-18T20:56:56.052Z,9.23
2023-04-18T20:59:22.579Z,8.50
2023-04-18T21:01:49.059Z,8.95
2023-04-18T21:04:15.806Z,9.57
2023-04-18T21:06:42.733Z,10.07
2023-04-18T21:09:09.233Z,8.63
2023-04-18T21:11:35.596Z,10.50
2023-04-18T21:14:03.649Z,9.23
2023-04-18T21:16:30.140Z,9.13
2023-04-18T21:18:56.692Z,9.52
2023-04-18T21:21:23.265Z,8.98
2023-04-18T21:23:49.880Z,9.70
2023-04-18T21:26:16.382Z,10.57
2023-04-18T21:29:00.205Z,9.77
2023-04-18T21:31:29.306Z,10.68
2023-04-18T21:33:57.309Z,9.63
2023-04-18T21:36:26.876Z,9.30
2023-04-18T21:38:57.375Z,10.15
2023-04-18T21:41:24.386Z,10.30
2023-04-18T21:43:51.722Z,9.75
2023-04-18T21:46:18.859Z,9.63
2023-04-18T21:48:47.101Z,10.27
2023-04-18T21:51:15.585Z,9.23
2023-04-18T21:53:42.796Z,9.57
2023-04-18T21:56:09.737Z,9.85
2023-04-18T21:58:36.327Z,9.88
2023-04-18T22:01:03.328Z,9.18
2023-04-18T22:03:30.192Z,9.25
2023-04-18T22:05:57.579Z,9.45
2023-04-18T22:08:25.765Z,10.05
2023-04-18T22:10:58.104Z,9.73
2023-04-18T22:13:30.020Z,9.05
2023-04-18T22:15:58.187Z,8.65
2023-04-18T22:18:25.229Z,9.25
2023-04-18T22:20:53.593Z,9.55
2023-04-18T22:23:20.635Z,8.95
2023-04-18T22:25:47.470Z,9.55
2023-04-18T22:28:13.936Z,10.10
2023-04-18T22:30:40.519Z,9.15
2023-04-18T22:33:07.133Z,9.30
2023-04-18T22:35:33.644Z,9.13
2023-04-18T22:38:00.129Z,8.68
2023-04-18T22:40:26.953Z,9.45
2023-04-18T22:42:54.108Z,8.38
2023-04-18T22:45:20.796Z,9.40
2023-04-18T22:47:47.296Z,8.38
2023-04-18T22:50:14.651Z,9.55
2023-04-18T22:52:41.515Z,8.65
2023-04-18T22:55:11.464Z,8.80
2023-04-18T22:57:39.206Z,8.25
2023-04-18T23:00:06.983Z,8.95
2023-04-18T23:02:33.531Z,8.23
2023-04-18T23:05:02.295Z,9.50
2023-04-18T23:07:28.889Z,9.52
2023-04-18T23:09:55.432Z,9.93
2023-04-18T23:12:22.266Z,10.00
2023-04-18T23:14:48.774Z,8.82
2023-04-18T23:17:15.320Z,9.43
2023-04-18T23:19:41.885Z,8.82
2023-04-18T23:22:08.225Z,9.43
2023-04-18T23:24:34.730Z,8.57
2023-04-18T23:27:01.554Z,9.73
2023-04-18T23:29:28.217Z,9.20
2023-04-18T23:31:54.628Z,8.60
2023-04-18T23:34:21.108Z,8.45
2023-04-18T23:36:47.581Z,8.05
2023-04-18T23:39:13.990Z,9.43
2023-04-18T23:41:40.840Z,8.48
2023-04-18T23:44:07.243Z,8.70
2023-04-18T23:46:36.230Z,8.57
2023-04-18T23:49:03.194Z,8.57
2023-04-18T23:51:29.681Z,8.55
2023-04-18T23:53:56.214Z,9.35
2023-04-18T23:56:23.162Z,9.70
2023-04-18T23:58:50.369Z,7.95
